Latest Weather Observations for Busselton Airport

IDW60801

Issued at 8:04 pm WST Saturday 1 October 2016 (issued every 30 minutes, with the page automatically refreshed every 10 minutes)

About weather observations | Map of weather stations | Latest weather observations for WA | Other Formats
Station Details ID: 009603 Name: BUSSELTON AERO Lat: -33.69 Lon: 115.40 Height: 16.3 m
Data from the previous 72 hours. | See also: Recent months at Busselton Airport
Date/Time
WST
Temp
°C
App
Temp
°C
Dew
Point
°C
Rel
Hum
%
Delta-T
°C
Wind Press
QNH
hPa
Press
MSL
hPa
Rain since
9am
mm
Dir  Spd
km/h
Gust
km/h
Spd
kts
Gust
kts
01/08:00pm 9.2 4.6 3.6 68 2.4 WSW 17 24 9 13 1007.7 1007.7 -
01/07:30pm 9.3 3.0 3.7 68 2.4 SW 26 37 14 20 1007.4 1007.4 -
01/07:22pm 9.2 2.5 3.6 68 2.4 SW 28 46 15 25 1007.4 1007.4 -
01/07:00pm 9.4 3.0 3.2 65 2.7 SW 26 35 14 19 1007.0 1007.0 -
01/06:30pm 10.4 2.2 2.5 58 3.4 SW 35 50 19 27 1006.4 1006.4 -
01/06:25pm 10.3 2.1 2.9 60 3.2 SW 35 50 19 27 1006.4 1006.4 -
01/06:00pm 10.2 5.1 4.1 66 2.7 WSW 20 30 11 16 1005.7 1005.7 -
01/05:30pm 9.2 3.8 4.6 73 2.0 WSW 22 39 12 21 1005.7 1005.7 -
01/05:00pm 9.5 2.6 2.6 62 2.9 WSW 28 44 15 24 1005.1 1005.1 -
01/04:30pm 10.9 3.0 2.5 56 3.6 WSW 33 54 18 29 1004.8 1004.8 -
01/04:24pm 10.7 2.3 3.7 62 3.1 WSW 37 54 20 29 1004.7 1004.7 -
01/04:00pm 10.1 1.8 5.9 75 1.9 SW 39 63 21 34 1004.6 1004.6 -
01/03:52pm 10.3 3.5 5.3 71 2.3 WSW 30 52 16 28 1004.6 1004.6 -
01/03:30pm 11.2 5.7 5.7 69 2.5 SW 24 39 13 21 1004.1 1004.1 -
01/03:00pm 10.5 3.7 4.9 68 2.5 WSW 30 54 16 29 1003.7 1003.7 -
01/02:51pm 10.4 5.0 4.5 67 2.6 W 22 54 12 29 1003.9 1003.9 -
01/02:30pm 11.2 4.9 5.5 68 2.6 SW 28 39 15 21 1003.4 1003.4 -
01/02:03pm 9.0 -0.2 3.6 69 2.3 WSW 41 61 22 33 1003.8 1003.8 -
01/02:00pm 9.7 0.9 3.7 66 2.6 WSW 39 61 21 33 1004.2 1004.2 -
01/01:30pm 13.4 5.0 3.8 52 4.3 W 37 56 20 30 1002.8 1002.8 -
01/01:02pm 12.1 4.7 4.8 61 3.3 WSW 33 52 18 28 1002.8 1002.8 -
01/01:00pm 11.9 4.8 5.5 65 3.0 WSW 32 48 17 26 1002.8 1002.8 -
01/12:30pm 12.9 3.9 2.7 50 4.5 WSW 39 57 21 31 1002.8 1002.8 -
01/12:19pm 12.5 4.9 3.7 55 3.9 WSW 33 56 18 30 1002.6 1002.6 -
01/11:30am 13.7 6.1 3.8 51 4.5 W 33 57 18 31 1002.1 1002.1 1.6
01/11:04am 12.4 6.3 6.5 67 2.8 WSW 28 57 15 31 1002.3 1002.3 1.6
01/11:00am 11.6 6.4 7.1 74 2.2 WSW 24 39 13 21 1002.4 1002.4 1.6
01/10:30am 10.0 2.1 4.6 69 2.4 SW 35 57 19 31 1003.0 1003.0 0.4
01/10:17am 10.3 0.9 5.3 71 2.3 SW 44 61 24 33 1002.4 1002.4 0.2
01/10:13am 12.5 3.1 5.2 61 3.4 WSW 44 63 24 34 1002.5 1002.5 0.0
01/10:00am 13.6 3.8 2.2 46 5.0 W 43 63 23 34 1001.6 1001.6 0.0
01/09:30am 12.9 5.2 3.6 53 4.2 W 33 61 18 33 1001.4 1001.4 0.0
01/09:00am 13.0 3.8 3.7 53 4.2 WSW 41 67 22 36 1001.5 1001.5 3.0
01/08:30am 10.7 2.2 3.0 59 3.3 W 37 57 20 31 1000.9 1000.9 3.0
01/08:00am 12.6 4.5 3.3 53 4.2 WSW 35 63 19 34 1000.4 1000.4 3.0
01/07:30am 11.9 4.6 4.4 60 3.4 WSW 32 54 17 29 1000.0 1000.0 3.0
01/07:00am 10.3 2.5 5.1 70 2.4 WSW 35 69 19 37 999.9 999.9 3.0
01/06:30am 11.3 3.3 5.8 69 2.6 W 37 65 20 35 999.1 999.1 3.0
01/06:00am 12.5 5.3 5.2 61 3.4 W 32 56 17 30 998.7 998.7 3.0
01/05:30am 11.8 3.6 5.0 63 3.1 W 37 63 20 34 998.3 998.3 3.0
01/05:00am 11.1 2.7 9.0 87 1.1 W 43 65 23 35 998.3 998.3 2.8
01/04:47am 11.1 1.7 8.8 86 1.1 W 48 70 26 38 998.1 998.1 2.8
01/04:44am 11.4 2.7 8.4 82 1.5 WNW 44 70 24 38 998.1 998.1 2.4
01/04:30am 14.4 6.5 9.4 72 2.6 WNW 41 63 22 34 996.7 996.7 0.8
01/04:04am 13.8 7.6 10.2 79 1.9 NW 33 52 18 28 997.3 997.3 0.8
01/04:00am 13.9 7.2 9.7 76 2.2 WNW 35 50 19 27 997.4 997.4 0.8
01/03:30am 14.8 6.2 8.7 67 3.1 NW 44 65 24 35 998.1 998.1 0.6
01/03:00am 14.7 8.2 8.9 68 3.0 NW 33 52 18 28 998.7 998.7 0.6
01/02:37am 14.5 7.7 9.3 71 2.7 NW 35 54 19 29 998.8 998.8 0.6
01/02:30am 14.4 7.5 9.0 70 2.7 NW 35 50 19 27 999.0 999.0 0.6
01/02:13am 14.3 8.1 9.3 72 2.6 NW 32 56 17 30 999.2 999.2 0.6
01/02:00am 14.4 8.9 9.0 70 2.8 NW 28 44 15 24 999.6 999.6 0.6
01/01:30am 14.2 7.7 8.2 67 3.0 NW 32 43 17 23 1000.6 1000.6 0.6
01/01:00am 14.2 8.6 8.6 69 2.8 NW 28 44 15 24 1001.0 1001.0 0.6
01/12:30am 14.2 8.9 8.6 69 2.8 NW 26 35 14 19 1001.4 1001.4 0.6
01/12:00am 13.8 9.9 8.8 72 2.5 WNW 19 26 10 14 1001.8 1001.8 0.6
 
Date/Time
WST
Temp
°C
App
Temp
°C
Dew
Point
°C
Rel
Hum
%
Delta-T
°C
Wind Press
QNH
hPa
Press
MSL
hPa
Rain since
9am
mm
Dir  Spd
km/h
Gust
km/h
Spd
kts
Gust
kts
30/11:30pm 13.7 9.9 9.0 73 2.4 WNW 19 26 10 14 1002.3 1002.3 0.6
30/11:00pm 13.6 9.5 8.7 72 2.5 NW 20 32 11 17 1002.9 1002.9 0.6
30/10:30pm 12.6 9.8 8.7 77 1.9 NW 13 19 7 10 1003.3 1003.3 0.6
30/10:00pm 12.8 10.5 9.1 78 1.9 NW 11 15 6 8 1003.9 1003.9 0.6
30/09:30pm 12.7 11.2 9.2 79 1.8 NW 7 7 4 4 1004.1 1004.1 0.6
30/09:00pm 13.3 12.0 9.2 76 2.1 W 6 9 3 5 1004.6 1004.6 0.6
30/08:30pm 13.3 11.4 9.0 75 2.2 WSW 9 17 5 9 1004.7 1004.7 0.6
30/08:00pm 13.8 11.1 9.0 73 2.4 W 13 20 7 11 1004.4 1004.4 0.6
30/07:30pm 13.8 11.4 8.6 71 2.6 NW 11 15 6 8 1004.3 1004.3 0.6
30/07:00pm 13.7 11.6 8.3 70 2.7 WNW 9 15 5 8 1004.5 1004.5 0.6
30/06:30pm 14.2 11.6 7.7 65 3.2 W 11 19 6 10 1004.5 1004.5 0.6
30/06:00pm 14.9 10.8 8.6 66 3.2 W 20 32 11 17 1004.5 1004.5 0.6
30/05:30pm 15.2 11.7 8.9 66 3.2 W 17 28 9 15 1004.4 1004.4 0.6
30/05:00pm 15.9 10.6 8.6 62 3.7 W 26 44 14 24 1004.3 1004.3 0.6
30/04:30pm 16.4 12.8 10.5 68 3.1 W 20 32 11 17 1004.1 1004.1 0.6
30/04:00pm 15.7 11.9 9.8 68 3.1 W 20 33 11 18 1004.1 1004.1 0.6
30/03:30pm 15.9 12.4 10.9 72 2.7 W 20 33 11 18 1004.1 1004.1 0.4
30/03:03pm 15.7 9.9 10.7 72 2.7 W 32 50 17 27 1004.0 1004.0 0.4
30/03:00pm 15.6 10.2 10.8 73 2.6 W 30 44 16 24 1004.2 1004.2 0.4
30/02:30pm 14.6 10.4 12.3 86 1.3 W 26 37 14 20 1004.3 1004.3 0.4
30/02:22pm 14.6 10.0 12.3 86 1.3 W 28 46 15 25 1004.4 1004.4 0.4
30/02:00pm 15.2 9.2 10.2 72 2.6 WNW 32 44 17 24 1004.4 1004.4 0.0
30/01:30pm 16.6 10.8 9.5 63 3.7 WNW 30 43 16 23 1004.2 1004.2 0.0
30/01:00pm 16.5 10.6 9.0 61 3.9 WNW 30 43 16 23 1004.5 1004.5 0.0
30/12:42pm 16.1 10.1 8.6 61 3.8 WNW 30 52 16 28 1004.9 1004.9 0.0
30/12:30pm 16.7 10.6 9.6 63 3.7 WNW 32 44 17 24 1005.0 1005.0 0.0
30/12:00pm 13.8 9.1 10.6 81 1.7 WNW 26 43 14 23 1005.2 1005.2 0.0
30/11:38am 15.7 9.8 9.1 65 3.4 WNW 30 52 16 28 1005.3 1005.3 0.0
30/11:30am 16.0 9.5 8.0 59 4.0 W 32 44 17 24 1005.3 1005.3 0.0
30/11:00am 16.3 9.7 8.5 60 4.0 WNW 33 44 18 24 1005.5 1005.5 0.0
30/10:30am 15.8 10.6 8.8 63 3.6 WNW 26 43 14 23 1005.6 1005.6 0.0
30/10:00am 16.3 11.7 9.7 65 3.5 WNW 24 37 13 20 1005.4 1005.4 0.0
30/09:30am 15.4 10.5 10.0 70 2.8 WNW 26 35 14 19 1005.9 1005.9 0.0
30/09:00am 14.0 10.4 10.4 79 1.9 WNW 20 30 11 16 1005.8 1005.8 0.8
30/08:30am 14.1 9.7 10.5 79 1.9 WNW 24 39 13 21 1005.9 1005.9 0.8
30/08:00am 13.6 10.2 12.5 93 0.6 WNW 22 32 12 17 1005.8 1005.8 0.8
30/07:30am 13.3 8.7 11.0 86 1.2 WNW 26 37 14 20 1005.7 1005.7 0.2
30/07:00am 14.5 8.5 10.1 75 2.3 NW 32 50 17 27 1005.3 1005.3 0.2
30/06:59am 14.5 8.5 10.1 75 2.3 NW 32 50 17 27 1005.3 1005.3 0.2
30/06:30am 14.3 8.5 9.5 73 2.5 NW 30 41 16 22 1005.5 1005.5 0.2
30/06:00am 13.9 8.6 9.7 76 2.2 NW 28 37 15 20 1005.8 1005.8 0.2
30/05:30am 13.6 9.0 9.5 76 2.1 NW 24 32 13 17 1005.7 1005.7 0.2
30/05:00am 13.5 8.2 8.6 72 2.5 NW 26 37 14 20 1006.2 1006.2 0.2
30/04:30am 13.4 8.8 8.0 70 2.7 NW 22 32 12 17 1006.7 1006.7 0.2
30/04:00am 13.5 9.1 7.5 67 2.9 NW 20 28 11 15 1007.2 1007.2 0.2
30/03:30am 13.3 8.5 7.3 67 2.9 NW 22 32 12 17 1007.6 1007.6 0.2
30/03:00am 13.3 9.0 6.9 65 3.1 NW 19 24 10 13 1008.3 1008.3 0.2
30/02:30am 13.0 9.3 6.4 64 3.1 WNW 15 19 8 10 1009.0 1009.0 0.2
30/02:00am 12.6 9.1 5.5 62 3.3 WNW 13 20 7 11 1009.2 1009.2 0.2
30/01:30am 12.7 9.3 5.8 63 3.2 NW 13 20 7 11 1009.6 1009.6 0.2
30/01:00am 11.7 9.0 5.6 66 2.8 WNW 9 13 5 7 1010.0 1010.0 0.2
30/12:30am 10.7 7.4 4.8 67 2.7 NW 11 13 6 7 1010.2 1010.2 0.2
30/12:00am 10.4 7.7 5.4 71 2.3 WNW 9 13 5 7 1010.6 1010.6 0.2
 
Date/Time
WST
Temp
°C
App
Temp
°C
Dew
Point
°C
Rel
Hum
%
Delta-T
°C
Wind Press
QNH
hPa
Press
MSL
hPa
Rain since
9am
mm
Dir  Spd
km/h
Gust
km/h
Spd
kts
Gust
kts
29/11:30pm 11.0 8.4 6.0 71 2.3 NW 9 13 5 7 1011.0 1011.0 0.2
29/11:00pm 12.1 10.2 7.6 74 2.2 NNW 7 13 4 7 1011.6 1011.6 0.2
29/10:30pm 12.2 10.5 8.3 77 1.9 NW 7 13 4 7 1012.5 1012.5 0.2
29/10:00pm 12.3 11.1 9.5 83 1.4 WNW 6 9 3 5 1013.1 1013.1 0.2
29/09:30pm 12.2 10.8 9.6 84 1.3 WNW 7 9 4 5 1013.7 1013.7 0.2
29/09:00pm 12.2 10.8 9.4 83 1.4 WNW 7 7 4 4 1013.8 1013.8 0.2
29/08:30pm 12.8 11.4 9.6 81 1.6 WSW 7 9 4 5 1014.1 1014.1 0.2
29/08:00pm 12.7 9.8 9.7 82 1.5 NNW 15 22 8 12 1014.2 1014.2 0.2
29/07:30pm 12.7 9.3 9.0 78 1.9 NNW 17 26 9 14 1014.4 1014.4 0.0
29/07:00pm 13.3 10.1 8.4 72 2.4 N 15 20 8 11 1014.3 1014.3 0.0
29/06:30pm 12.7 9.4 8.0 73 2.3 N 15 20 8 11 1014.6 1014.6 0.0
29/06:00pm 13.1 9.0 7.8 70 2.6 N 19 24 10 13 1014.7 1014.7 0.0
29/05:30pm 13.3 8.9 7.5 68 2.8 N 20 24 11 13 1014.7 1014.7 0.0
29/05:00pm 13.5 9.1 7.3 66 3.0 N 20 26 11 14 1014.8 1014.8 0.0
29/04:30pm 13.8 9.4 7.3 65 3.2 N 20 28 11 15 1015.0 1015.0 0.0
29/04:00pm 13.7 9.2 6.8 63 3.3 N 20 28 11 15 1015.3 1015.3 0.0
29/03:30pm 14.8 9.8 6.6 58 4.0 N 22 28 12 15 1015.6 1015.6 0.0
29/03:00pm 14.8 10.0 7.4 61 3.6 N 22 28 12 15 1016.1 1016.1 0.0
29/02:30pm 14.2 9.8 6.6 60 3.7 N 19 26 10 14 1016.8 1016.8 0.0
29/02:00pm 14.4 9.8 6.3 58 3.9 N 20 26 11 14 1017.2 1017.2 0.0
29/01:30pm 14.3 9.2 6.2 58 3.9 N 22 28 12 15 1017.9 1017.9 0.0
29/01:00pm 13.5 8.3 5.4 58 3.8 N 22 30 12 16 1018.6 1018.6 0.0
29/12:30pm 14.3 10.1 5.9 57 4.0 N 17 24 9 13 1019.3 1019.3 0.0
29/12:00pm 13.2 8.8 4.9 57 3.8 N 17 22 9 12 1019.8 1019.8 0.0
29/11:30am 12.7 7.9 4.4 57 3.8 N 19 24 10 13 1020.2 1020.2 0.0
29/11:00am 12.5 7.7 4.5 58 3.6 N 19 24 10 13 1020.4 1020.4 0.0
29/10:30am 11.7 7.1 3.7 58 3.6 N 17 20 9 11 1020.9 1020.9 0.0
29/10:00am 11.6 7.4 3.9 59 3.4 N 15 20 8 11 1021.5 1021.5 0.0
29/09:30am 11.3 8.9 4.5 63 3.1 NNE 6 13 3 7 1021.9 1021.9 0.0
29/09:00am 10.3 7.7 4.2 66 2.7 NE 7 11 4 6 1022.2 1022.2 0.0
29/08:30am 9.0 5.9 3.8 70 2.3 ENE 9 13 5 7 1022.3 1022.3 0.0
29/08:00am 8.0 5.8 5.1 82 1.3 E 6 9 3 5 1022.5 1022.5 0.0
29/07:30am 5.7 3.4 4.7 93 0.4 SE 6 9 3 5 1022.4 1022.4 0.0
29/07:00am 3.1 1.1 2.1 93 0.4 S 2 6 1 3 1022.3 1022.3 0.0
29/06:30am 1.4 -1.9 0.2 92 0.4 SSW 7 9 4 5 1022.3 1022.3 0.0
29/06:00am 1.6 -0.3 0.3 91 0.5 CALM 0 0 0 0 1022.1 1022.1 0.0
29/05:30am 1.8 -0.2 0.0 88 0.7 CALM 0 0 0 0 1022.3 1022.3 0.0
29/05:00am 3.4 1.3 1.9 90 0.6 SSE 2 6 1 3 1022.1 1022.1 0.0
29/04:30am 3.0 0.5 1.5 90 0.6 SE 4 6 2 3 1021.9 1021.9 0.0
29/04:00am 2.5 0.6 0.6 87 0.7 CALM 0 0 0 0 1021.9 1021.9 0.0
29/03:30am 3.7 0.8 1.7 87 0.8 ESE 6 6 3 3 1022.0 1022.0 0.0
29/03:00am 4.0 1.6 1.9 86 0.8 SE 4 6 2 3 1022.0 1022.0 0.0
29/02:30am 4.1 1.3 1.8 85 0.9 SE 6 7 3 4 1022.3 1022.3 0.0
29/02:00am 4.3 1.3 2.2 86 0.8 SE 7 9 4 5 1022.4 1022.4 0.0
29/01:30am 4.0 0.6 2.0 87 0.8 ESE 9 11 5 6 1022.6 1022.6 0.0
29/01:00am 3.7 0.3 1.6 86 0.8 E 9 13 5 7 1022.7 1022.7 0.0
29/12:30am 4.6 1.6 2.1 84 1.0 SE 7 7 4 4 1023.3 1023.4 0.0
29/12:00am 5.4 2.7 2.8 83 1.1 SSE 6 7 3 4 1023.9 1023.9 0.0
 
Date/Time
WST
Temp
°C
App
Temp
°C
Dew
Point
°C
Rel
Hum
%
Delta-T
°C
Wind Press
QNH
hPa
Press
MSL
hPa
Rain since
9am
mm
Dir  Spd
km/h
Gust
km/h
Spd
kts
Gust
kts
28/11:30pm 4.5 1.5 1.7 82 1.1 S 7 11 4 6 1023.9 1023.9 0.0
28/11:00pm 5.2 2.3 2.6 83 1.1 SSE 7 9 4 5 1024.1 1024.1 0.0
28/10:30pm 5.0 1.3 2.2 82 1.1 SSE 11 13 6 7 1024.2 1024.2 0.0
28/10:00pm 5.5 1.4 2.5 81 1.2 SSE 13 15 7 8 1024.3 1024.3 0.0
28/09:30pm 5.7 1.6 2.5 80 1.3 S 13 15 7 8 1024.4 1024.4 0.0
28/09:00pm 5.7 1.6 2.5 80 1.3 S 13 15 7 8 1024.5 1024.5 0.0
28/08:30pm 6.1 2.1 2.7 79 1.4 S 13 13 7 7 1024.5 1024.5 0.0

Other Formats:

Comma delimited format used in spreadsheet applications
http://www.bom.gov.au/fwo/IDW60801/IDW60801.95611.axf

JavaScript Object Notation format (JSON) in row-major order
http://www.bom.gov.au/fwo/IDW60801/IDW60801.95611.json